| time (UTC) | temp C | wind direction | speed KPH | gust KPH | rain 1hr cm | rain 24hr cm | rain mn cm | humidity % | barometer mb |
| 20260507070559 | 25 | 269 | 8.0 | 20.9 | 0.00 | 0.00 | 0.00 | 85 | 1026.9 |
| 20260507070059 | 25 | 178 | 4.8 | 20.9 | 0.00 | 0.00 | 0.00 | 85 | 1027.0 |
| 20260507065558 | 25 | 192 | 6.4 | 20.9 | 0.00 | 0.00 | 0.00 | 85 | 1026.8 |
| 20260507064542 | 25 | 213 | 8.0 | 20.9 | 0.00 | 0.00 | 0.00 | 85 | 1027.2 |
| 20260507064042 | 25 | 227 | 9.7 | 20.9 | 0.00 | 0.00 | 0.00 | 85 | 1027.1 |
| 20260507063542 | 25 | 199 | 8.0 | 20.9 | 0.00 | 0.00 | 0.00 | 85 | 1026.8 |
| 20260507063041 | 25 | 205 | 8.0 | 20.9 | 0.00 | 0.00 | 0.00 | 86 | 1027.3 |
| 20260507062540 | 25 | 192 | 8.0 | 20.9 | 0.00 | 0.00 | 0.00 | 86 | 1027.2 |
| 20260507062040 | 25 | 143 | 8.0 | 20.9 | 0.00 | 0.00 | 0.00 | 86 | 1027.1 |
| 20260507061540 | 25 | 188 | 8.0 | 20.9 | 0.00 | 0.00 | 0.00 | 86 | 1027.3 |
| 20260507061040 | 25 | 117 | 8.0 | 20.9 | 0.00 | 0.00 | 0.00 | 86 | 1027.4 |
| 20260507060540 | 25 | 129 | 9.7 | 20.9 | 0.00 | 0.00 | 0.00 | 85 | 1027.6 |
| 20260507060040 | 25 | 142 | 4.8 | 20.9 | 0.00 | 0.00 | 0.00 | 85 | 1027.6 |
| 20260507055540 | 25 | 125 | 4.8 | 20.9 | 0.00 | 0.00 | 0.00 | 85 | 1027.6 |
| 20260507055040 | 25 | 206 | 8.0 | 20.9 | 0.00 | 0.00 | 0.00 | 85 | 1027.9 |
| 20260507054540 | 25 | 183 | 8.0 | 20.9 | 0.00 | 0.00 | 0.00 | 85 | 1027.8 |
| 20260507053010 | 25 | 147 | 6.4 | 20.9 | 0.00 | 0.00 | 0.00 | 86 | 1027.7 |
| 20260507052510 | 25 | 191 | 8.0 | 20.9 | 0.00 | 0.00 | 0.00 | 86 | 1027.7 |
| 20260507051454 | 25 | 163 | 8.0 | 20.9 | 0.00 | 0.00 | 0.00 | 87 | 1027.9 |
| 20260507050954 | 25 | 156 | 4.8 | 20.9 | 0.00 | 0.00 | 0.00 | 87 | 1027.8 |
| 20260507050454 | 25 | 145 | 8.0 | 20.9 | 0.00 | 0.00 | 0.00 | 86 | 1027.9 |
| 20260507045954 | 26 | 163 | 6.4 | 20.9 | 0.00 | 0.00 | 0.00 | 86 | 1028.1 |
| 20260507045454 | 26 | 155 | 9.7 | 20.9 | 0.00 | 0.00 | 0.00 | 85 | 1028.2 |
| 20260507044954 | 26 | 197 | 14.5 | 20.9 | 0.00 | 0.00 | 0.00 | 85 | 1028.3 |
| 20260507043938 | 26 | 156 | 9.7 | 19.3 | 0.00 | 0.00 | 0.00 | 85 | 1028.2 |
| 20260507043438 | 26 | 157 | 9.7 | 19.3 | 0.00 | 0.00 | 0.00 | 85 | 1028.6 |
| 20260507042422 | 26 | 206 | 12.9 | 19.3 | 0.00 | 0.00 | 0.00 | 85 | 1028.7 |
| 20260507040852 | 26 | 148 | 6.4 | 19.3 | 0.00 | 0.00 | 0.00 | 85 | 1028.7 |
| 20260507040352 | 26 | 187 | 12.9 | 19.3 | 0.00 | 0.00 | 0.00 | 84 | 1028.9 |
| 20260507035852 | 26 | 167 | 9.7 | 20.9 | 0.00 | 0.00 | 0.00 | 84 | 1028.7 |
| 20260507035352 | 26 | 184 | 9.7 | 20.9 | 0.00 | 0.00 | 0.00 | 84 | 1028.9 |
| 20260507034852 | 26 | 198 | 11.3 | 20.9 | 0.00 | 0.00 | 0.00 | 84 | 1028.9 |
| 20260507034352 | 26 | 179 | 11.3 | 20.9 | 0.00 | 0.00 | 0.00 | 85 | 1028.8 |
| 20260507033337 | 26 | 179 | 12.9 | 20.9 | 0.00 | 0.00 | 0.00 | 84 | 1028.7 |
| 20260507032837 | 26 | 169 | 9.7 | 20.9 | 0.00 | 0.00 | 0.00 | 84 | 1028.9 |
| 20260507032337 | 26 | 174 | 11.3 | 22.5 | 0.00 | 0.00 | 0.00 | 84 | 1028.9 |
| 20260507031321 | 26 | 164 | 12.9 | 22.5 | 0.00 | 0.00 | 0.00 | 84 | 1029.0 |
| 20260507030821 | 26 | 154 | 9.7 | 20.9 | 0.00 | 0.00 | 0.00 | 84 | 1029.2 |
| 20260507030321 | 26 | 208 | 12.9 | 20.9 | 0.00 | 0.00 | 0.00 | 84 | 1029.0 |
| 20260507025821 | 26 | 141 | 9.7 | 20.9 | 0.00 | 0.00 | 0.00 | 84 | 1029.1 |
| 20260507024806 | 26 | 176 | 9.7 | 20.9 | 0.00 | 0.00 | 0.00 | 84 | 1029.3 |
| 20260507024306 | 26 | 174 | 11.3 | 20.9 | 0.00 | 0.00 | 0.00 | 84 | 1029.2 |
| 20260507023806 | 26 | 168 | 9.7 | 20.9 | 0.00 | 0.00 | 0.00 | 84 | 1029.4 |
| 20260507023306 | 26 | 195 | 12.9 | 19.3 | 0.00 | 0.00 | 0.00 | 84 | 1029.3 |
| 20260507022806 | 26 | 159 | 11.3 | 19.3 | 0.00 | 0.00 | 0.00 | 85 | 1029.0 |
| 20260507022306 | 26 | 164 | 9.7 | 19.3 | 0.00 | 0.00 | 0.00 | 85 | 1029.2 |
| 20260507021806 | 26 | 182 | 12.9 | 19.3 | 0.00 | 0.00 | 0.00 | 85 | 1029.1 |
| 20260507021306 | 26 | 149 | 9.7 | 24.1 | 0.00 | 0.00 | 0.00 | 85 | 1029.4 |
| 20260507020251 | 26 | 177 | 12.9 | 20.9 | 0.00 | 0.00 | 0.00 | 85 | 1029.3 |
| 20260507014720 | 26 | 111 | 9.7 | 20.9 | 0.00 | 0.00 | 0.00 | 86 | 1029.0 |
| 20260507013705 | 26 | 135 | 9.7 | 20.9 | 0.00 | 0.00 | 0.00 | 86 | 1029.2 |
| 20260507013205 | 26 | 55 | 9.7 | 22.5 | 0.00 | 0.00 | 0.00 | 86 | 1028.8 |
| 20260507012704 | 26 | 100 | 9.7 | 22.5 | 0.00 | 0.00 | 0.00 | 86 | 1028.9 |
| 20260507012205 | 26 | 140 | 9.7 | 22.5 | 0.00 | 0.00 | 0.00 | 86 | 1028.8 |
| 20260507010649 | 26 | 139 | 9.7 | 19.3 | 0.00 | 0.00 | 0.00 | 85 | 1028.7 |
| 20260507010149 | 26 | 120 | 8.0 | 19.3 | 0.00 | 0.00 | 0.00 | 86 | 1028.7 |
| 20260507005649 | 26 | 145 | 8.0 | 19.3 | 0.00 | 0.00 | 0.00 | 86 | 1028.9 |
| 20260507005148 | 26 | 157 | 11.3 | 19.3 | 0.00 | 0.00 | 0.00 | 86 | 1028.8 |
| 20260507004648 | 26 | 186 | 12.9 | 19.3 | 0.00 | 0.00 | 0.00 | 86 | 1028.6 |
| 20260507003632 | 26 | 186 | 11.3 | 19.3 | 0.00 | 0.00 | 0.00 | 86 | 1028.5 |
| 20260507003132 | 26 | 141 | 9.7 | 19.3 | 0.00 | 0.00 | 0.00 | 86 | 1028.3 |
| 20260507002633 | 26 | 141 | 11.3 | 19.3 | 0.00 | 0.00 | 0.00 | 86 | 1028.4 |
| 20260507002133 | 26 | 164 | 4.8 | 19.3 | 0.00 | 0.00 | 0.00 | 85 | 1028.1 |
| 20260507001632 | 26 | 130 | 8.0 | 19.3 | 0.00 | 0.00 | 0.00 | 85 | 1028.3 |
| 20260507001133 | 26 | 176 | 8.0 | 19.3 | 0.00 | 0.00 | 0.00 | 85 | 1028.3 |
| 20260507000632 | 26 | 175 | 9.7 | 19.3 | 0.00 | 0.00 | 0.00 | 85 | 1028.3 |
| 20260507000132 | 26 | 142 | 6.4 | 19.3 | 0.00 | 0.00 | 0.00 | 85 | 1028.3 |
| 20260506235632 | 26 | 196 | 11.3 | 19.3 | 0.00 | 0.00 | 0.00 | 85 | 1028.1 |
| 20260506235133 | 26 | 144 | 9.7 | 19.3 | 0.00 | 0.00 | 0.00 | 85 | 1028.0 |
| 20260506234633 | 26 | 154 | 8.0 | 19.3 | 0.00 | 0.00 | 0.00 | 85 | 1027.9 |
| 20260506234132 | 26 | 167 | 8.0 | 20.9 | 0.00 | 0.00 | 0.00 | 85 | 1028.0 |
| 20260506233632 | 26 | 187 | 11.3 | 20.9 | 0.00 | 0.00 | 0.00 | 85 | 1027.8 |
| 20260506233133 | 26 | 125 | 8.0 | 17.7 | 0.00 | 0.00 | 0.00 | 85 | 1027.8 |
| 20260506232633 | 26 | 116 | 4.8 | 17.7 | 0.00 | 0.00 | 0.00 | 85 | 1027.8 |
| 20260506232132 | 26 | 178 | 6.4 | 17.7 | 0.00 | 0.00 | 0.00 | 84 | 1027.8 |
| 20260506231632 | 26 | 173 | 6.4 | 17.7 | 0.00 | 0.00 | 0.00 | 84 | 1027.6 |
| 20260506231132 | 26 | 166 | 9.7 | 17.7 | 0.00 | 0.00 | 0.00 | 84 | 1027.4 |
| 20260506230632 | 26 | 153 | 8.0 | 17.7 | 0.00 | 0.00 | 0.00 | 84 | 1027.4 |
| 20260506225617 | 26 | 145 | 9.7 | 17.7 | 0.00 | 0.00 | 0.00 | 84 | 1027.3 |
| 20260506225116 | 26 | 117 | 6.4 | 20.9 | 0.00 | 0.00 | 0.00 | 84 | 1027.4 |
| 20260506224617 | 26 | 165 | 6.4 | 20.9 | 0.00 | 0.00 | 0.00 | 83 | 1027.3 |
| 20260506224116 | 26 | 147 | 6.4 | 20.9 | 0.00 | 0.00 | 0.00 | 83 | 1027.1 |
| 20260506223616 | 26 | 124 | 8.0 | 20.9 | 0.00 | 0.00 | 0.00 | 82 | 1027.1 |
| 20260506223117 | 26 | 166 | 9.7 | 20.9 | 0.00 | 0.00 | 0.00 | 82 | 1027.2 |
| 20260506222102 | 26 | 126 | 8.0 | 20.9 | 0.00 | 0.00 | 0.00 | 82 | 1027.0 |
| 20260506221602 | 26 | 110 | 9.7 | 20.9 | 0.00 | 0.00 | 0.00 | 81 | 1027.1 |
| 20260506221102 | 26 | 134 | 8.0 | 20.9 | 0.00 | 0.00 | 0.00 | 81 | 1027.0 |
| 20260506220602 | 26 | 122 | 8.0 | 20.9 | 0.00 | 0.00 | 0.00 | 81 | 1027.1 |
| 20260506215602 | 26 | 137 | 11.3 | 20.9 | 0.00 | 0.00 | 0.00 | 81 | 1026.8 |
| 20260506215102 | 26 | 151 | 8.0 | 20.9 | 0.00 | 0.00 | 0.00 | 81 | 1026.9 |
| 20260506214601 | 26 | 163 | 12.9 | 20.9 | 0.00 | 0.00 | 0.00 | 81 | 1026.9 |
| 20260506214101 | 26 | 114 | 11.3 | 20.9 | 0.00 | 0.00 | 0.00 | 81 | 1026.6 |
| 20260506213601 | 26 | 161 | 12.9 | 20.9 | 0.00 | 0.00 | 0.00 | 80 | 1026.6 |
| 20260506213059 | 27 | 122 | 9.7 | 22.5 | 0.00 | 0.00 | 0.00 | 80 | 1026.5 |
| 20260506212559 | 27 | 135 | 11.3 | 22.5 | 0.00 | 0.00 | 0.00 | 80 | 1026.4 |
| 20260506212058 | 27 | 148 | 9.7 | 22.5 | 0.00 | 0.00 | 0.00 | 80 | 1026.4 |
| 20260506211043 | 27 | 157 | 12.9 | 22.5 | 0.00 | 0.00 | 0.00 | 81 | 1026.5 |
| 20260506210028 | 27 | 136 | 12.9 | 22.5 | 0.00 | 0.00 | 0.00 | 81 | 1026.3 |
| 20260506205528 | 27 | 156 | 14.5 | 22.5 | 0.00 | 0.00 | 0.00 | 81 | 1026.5 |
| 20260506203958 | 27 | 130 | 9.7 | 22.5 | 0.00 | 0.00 | 0.00 | 82 | 1026.6 |
| 20260506203458 | 27 | 166 | 12.9 | 22.5 | 0.00 | 0.00 | 0.00 | 82 | 1026.6 |
| 20260506202957 | 27 | 90 | 11.3 | 22.5 | 0.00 | 0.00 | 0.00 | 82 | 1026.4 |
| 20260506202457 | 27 | 118 | 11.3 | 22.5 | 0.00 | 0.00 | 0.00 | 82 | 1026.2 |
| 20260506201956 | 27 | 167 | 12.9 | 22.5 | 0.00 | 0.00 | 0.00 | 82 | 1026.4 |
| 20260506201455 | 27 | 174 | 12.9 | 20.9 | 0.00 | 0.00 | 0.00 | 82 | 1026.2 |
| 20260506200955 | 27 | 163 | 9.7 | 20.9 | 0.00 | 0.00 | 0.00 | 81 | 1026.5 |
| 20260506200455 | 27 | 167 | 11.3 | 24.1 | 0.00 | 0.00 | 0.00 | 80 | 1026.4 |
| 20260506195954 | 27 | 132 | 11.3 | 24.1 | 0.00 | 0.00 | 0.00 | 80 | 1026.6 |
| 20260506195454 | 27 | 137 | 11.3 | 24.1 | 0.00 | 0.00 | 0.00 | 80 | 1026.7 |
| 20260506194954 | 27 | 141 | 12.9 | 24.1 | 0.00 | 0.00 | 0.00 | 80 | 1026.7 |
| 20260506194454 | 27 | 148 | 11.3 | 24.1 | 0.00 | 0.00 | 0.00 | 80 | 1026.7 |
| 20260506193438 | 27 | 124 | 11.3 | 20.9 | 0.00 | 0.00 | 0.00 | 81 | 1026.9 |
| 20260506192423 | 27 | 137 | 11.3 | 24.1 | 0.00 | 0.00 | 0.00 | 80 | 1027.1 |
| 20260506191923 | 27 | 112 | 9.7 | 24.1 | 0.00 | 0.00 | 0.00 | 81 | 1026.9 |
| 20260506191423 | 27 | 90 | 14.5 | 24.1 | 0.00 | 0.00 | 0.00 | 80 | 1026.8 |
| 20260506190923 | 27 | 82 | 12.9 | 22.5 | 0.00 | 0.00 | 0.00 | 80 | 1026.8 |
| 20260506190422 | 27 | 125 | 12.9 | 22.5 | 0.00 | 0.00 | 0.00 | 81 | 1026.7 |
| 20260506185922 | 27 | 127 | 9.7 | 24.1 | 0.00 | 0.00 | 0.00 | 81 | 1027.0 |
| 20260506185422 | 27 | 150 | 12.9 | 24.1 | 0.00 | 0.00 | 0.00 | 81 | 1027.0 |
| 20260506184922 | 27 | 141 | 11.3 | 24.1 | 0.00 | 0.00 | 0.00 | 82 | 1027.1 |
| 20260506184422 | 27 | 96 | 11.3 | 22.5 | 0.00 | 0.00 | 0.00 | 82 | 1027.2 |
| 20260506183922 | 27 | 150 | 12.9 | 27.4 | 0.00 | 0.00 | 0.00 | 81 | 1027.5 |
| 20260506183422 | 27 | 72 | 14.5 | 27.4 | 0.00 | 0.00 | 0.00 | 80 | 1027.4 |
| 20260506182922 | 27 | 101 | 14.5 | 27.4 | 0.00 | 0.00 | 0.00 | 80 | 1027.8 |
| 20260506182422 | 27 | 111 | 12.9 | 22.5 | 0.00 | 0.00 | 0.00 | 80 | 1027.3 |
| 20260506181922 | 27 | 117 | 12.9 | 24.1 | 0.00 | 0.00 | 0.00 | 81 | 1027.3 |
| 20260506181422 | 27 | 107 | 14.5 | 24.1 | 0.00 | 0.00 | 0.00 | 81 | 1027.6 |
| 20260506180922 | 27 | 102 | 14.5 | 24.1 | 0.00 | 0.00 | 0.00 | 81 | 1027.7 |
| 20260506180422 | 27 | 98 | 14.5 | 24.1 | 0.00 | 0.00 | 0.00 | 81 | 1027.4 |
| 20260506175922 | 27 | 67 | 12.9 | 27.4 | 0.00 | 0.00 | 0.00 | 81 | 1027.8 |
| 20260506175421 | 27 | 88 | 11.3 | 27.4 | 0.00 | 0.00 | 0.00 | 81 | 1027.8 |
| 20260506174921 | 27 | 112 | 14.5 | 27.4 | 0.00 | 0.00 | 0.00 | 80 | 1027.7 |
| 20260506174421 | 27 | 89 | 14.5 | 24.1 | 0.00 | 0.00 | 0.00 | 81 | 1027.8 |
| 20260506173921 | 27 | 118 | 12.9 | 25.7 | 0.00 | 0.00 | 0.00 | 81 | 1028.3 |
| 20260506173421 | 27 | 167 | 16.1 | 25.7 | 0.00 | 0.00 | 0.00 | 80 | 1028.1 |
| 20260506172921 | 27 | 98 | 16.1 | 27.4 | 0.00 | 0.00 | 0.00 | 79 | 1027.9 |
| 20260506172421 | 28 | 130 | 16.1 | 27.4 | 0.00 | 0.00 | 0.00 | 78 | 1028.2 |
| 20260506171921 | 28 | 141 | 14.5 | 24.1 | 0.00 | 0.00 | 0.00 | 78 | 1028.2 |
| 20260506171421 | 28 | 112 | 14.5 | 24.1 | 0.00 | 0.00 | 0.00 | 78 | 1028.1 |
| 20260506170921 | 28 | 129 | 16.1 | 24.1 | 0.00 | 0.00 | 0.00 | 78 | 1028.2 |
| 20260506170421 | 28 | 105 | 14.5 | 24.1 | 0.00 | 0.00 | 0.00 | 78 | 1028.6 |
| 20260506165921 | 28 | 86 | 11.3 | 25.7 | 0.00 | 0.00 | 0.00 | 80 | 1028.4 |
| 20260506165421 | 28 | 99 | 16.1 | 25.7 | 0.00 | 0.00 | 0.00 | 79 | 1028.4 |
| 20260506164921 | 28 | 130 | 14.5 | 24.1 | 0.00 | 0.00 | 0.00 | 79 | 1028.5 |
| 20260506164420 | 28 | 163 | 12.9 | 24.1 | 0.00 | 0.00 | 0.00 | 78 | 1028.7 |
| 20260506163405 | 28 | 131 | 14.5 | 24.1 | 0.00 | 0.00 | 0.00 | 80 | 1028.7 |
| 20260506162904 | 28 | 150 | 12.9 | 25.7 | 0.00 | 0.00 | 0.00 | 79 | 1028.6 |
| 20260506162403 | 27 | 189 | 16.1 | 25.7 | 0.00 | 0.00 | 0.00 | 79 | 1028.8 |
| 20260506161902 | 28 | 124 | 14.5 | 25.7 | 0.00 | 0.00 | 0.00 | 79 | 1028.8 |
| 20260506161401 | 28 | 163 | 14.5 | 22.5 | 0.00 | 0.00 | 0.00 | 78 | 1028.8 |
| 20260506160346 | 28 | 144 | 14.5 | 32.2 | 0.00 | 0.00 | 0.00 | 78 | 1028.8 |
| 20260506155331 | 28 | 141 | 12.9 | 25.7 | 0.00 | 0.00 | 0.00 | 80 | 1028.9 |
| 20260506154831 | 27 | 138 | 14.5 | 25.7 | 0.00 | 0.00 | 0.00 | 81 | 1029.2 |
| 20260506154330 | 27 | 152 | 14.5 | 25.7 | 0.00 | 0.00 | 0.00 | 82 | 1029.3 |
| 20260506153829 | 27 | 182 | 16.1 | 25.7 | 0.00 | 0.00 | 0.00 | 82 | 1029.3 |
| 20260506153329 | 27 | 131 | 16.1 | 25.7 | 0.00 | 0.00 | 0.00 | 82 | 1029.2 |
| 20260506152828 | 27 | 135 | 14.5 | 25.7 | 0.00 | 0.00 | 0.00 | 82 | 1029.4 |
| 20260506151813 | 27 | 171 | 12.9 | 24.1 | 0.00 | 0.00 | 0.00 | 82 | 1029.2 |
| 20260506151313 | 27 | 163 | 16.1 | 25.7 | 0.00 | 0.00 | 0.00 | 81 | 1029.3 |
| 20260506150813 | 27 | 148 | 14.5 | 25.7 | 0.00 | 0.00 | 0.00 | 80 | 1029.5 |
| 20260506150313 | 27 | 135 | 14.5 | 25.7 | 0.00 | 0.00 | 0.00 | 80 | 1029.5 |
| 20260506145813 | 27 | 105 | 14.5 | 27.4 | 0.00 | 0.00 | 0.00 | 79 | 1029.3 |
| 20260506145313 | 28 | 130 | 12.9 | 27.4 | 0.00 | 0.00 | 0.00 | 79 | 1029.5 |
| 20260506144813 | 28 | 93 | 14.5 | 25.7 | 0.00 | 0.00 | 0.00 | 78 | 1029.4 |
| 20260506144313 | 28 | 123 | 12.9 | 24.1 | 0.00 | 0.00 | 0.00 | 80 | 1029.3 |
| 20260506143813 | 28 | 154 | 12.9 | 25.7 | 0.00 | 0.00 | 0.00 | 80 | 1029.2 |
| 20260506142758 | 28 | 125 | 12.9 | 22.5 | 0.00 | 0.00 | 0.00 | 78 | 1029.4 |
| 20260506142258 | 28 | 178 | 12.9 | 22.5 | 0.00 | 0.00 | 0.00 | 79 | 1029.2 |
| 20260506141757 | 27 | 172 | 11.3 | 22.5 | 0.00 | 0.00 | 0.00 | 79 | 1029.3 |
| 20260506141256 | 28 | 153 | 11.3 | 22.5 | 0.00 | 0.00 | 0.00 | 79 | 1029.2 |
| 20260506140756 | 28 | 127 | 12.9 | 24.1 | 0.00 | 0.00 | 0.00 | 79 | 1029.2 |
| 20260506140256 | 28 | 213 | 14.5 | 24.1 | 0.00 | 0.00 | 0.00 | 78 | 1029.4 |
| 20260506135756 | 28 | 181 | 14.5 | 25.7 | 0.00 | 0.00 | 0.00 | 76 | 1029.1 |
| 20260506135256 | 28 | 163 | 17.7 | 25.7 | 0.00 | 0.00 | 0.00 | 76 | 1029.2 |
| 20260506134756 | 28 | 163 | 12.9 | 22.5 | 0.00 | 0.00 | 0.00 | 77 | 1029.1 |
| 20260506134255 | 28 | 161 | 14.5 | 25.7 | 0.00 | 0.00 | 0.00 | 75 | 1029.3 |
| 20260506133755 | 28 | 173 | 12.9 | 25.7 | 0.00 | 0.00 | 0.00 | 76 | 1029.5 |
| 20260506133255 | 28 | 185 | 12.9 | 24.1 | 0.00 | 0.00 | 0.00 | 76 | 1029.3 |
| 20260506132755 | 28 | 169 | 14.5 | 27.4 | 0.00 | 0.00 | 0.00 | 77 | 1029.4 |
| 20260506131740 | 28 | 186 | 14.5 | 27.4 | 0.00 | 0.00 | 0.00 | 77 | 1029.4 |
| 20260506130725 | 28 | 215 | 17.7 | 25.7 | 0.00 | 0.00 | 0.00 | 77 | 1029.2 |
| 20260506125709 | 28 | 192 | 16.1 | 27.4 | 0.00 | 0.00 | 0.00 | 77 | 1029.1 |
| 20260506125208 | 28 | 176 | 14.5 | 27.4 | 0.00 | 0.00 | 0.00 | 77 | 1029.0 |
| 20260506124708 | 27 | 176 | 16.1 | 25.7 | 0.00 | 0.00 | 0.00 | 79 | 1029.2 |
| 20260506123653 | 27 | 194 | 14.5 | 24.1 | 0.00 | 0.00 | 0.00 | 79 | 1029.2 |
| 20260506123153 | 27 | 181 | 14.5 | 24.1 | 0.00 | 0.00 | 0.00 | 79 | 1029.2 |
| 20260506122137 | 28 | 161 | 16.1 | 24.1 | 0.00 | 0.00 | 0.00 | 79 | 1029.2 |
| 20260506121636 | 27 | 142 | 14.5 | 25.7 | 0.00 | 0.00 | 0.00 | 79 | 1028.9 |
| 20260506120621 | 27 | 154 | 12.9 | 25.7 | 0.00 | 0.00 | 0.00 | 80 | 1028.9 |
| 20260506120121 | 27 | 166 | 12.9 | 25.7 | 0.00 | 0.00 | 0.00 | 79 | 1029.0 |
| 20260506115621 | 27 | 163 | 16.1 | 24.1 | 0.00 | 0.00 | 0.00 | 79 | 1028.9 |
| 20260506115120 | 27 | 143 | 12.9 | 27.4 | 0.00 | 0.00 | 0.00 | 79 | 1028.8 |
| 20260506114620 | 27 | 143 | 11.3 | 27.4 | 0.00 | 0.00 | 0.00 | 79 | 1028.8 |
| 20260506114120 | 27 | 134 | 11.3 | 27.4 | 0.00 | 0.00 | 0.00 | 80 | 1028.7 |
| 20260506113619 | 27 | 159 | 14.5 | 24.1 | 0.00 | 0.00 | 0.00 | 80 | 1028.7 |
| 20260506113118 | 27 | 151 | 17.7 | 22.5 | 0.00 | 0.00 | 0.00 | 80 | 1028.5 |
| 20260506112618 | 27 | 178 | 14.5 | 22.5 | 0.00 | 0.00 | 0.00 | 80 | 1028.6 |
| 20260506112117 | 27 | 167 | 14.5 | 24.1 | 0.00 | 0.00 | 0.00 | 80 | 1028.5 |
| 20260506111102 | 27 | 165 | 12.9 | 25.7 | 0.00 | 0.00 | 0.00 | 80 | 1028.4 |
| 20260506110602 | 27 | 130 | 9.7 | 25.7 | 0.00 | 0.00 | 0.00 | 81 | 1028.3 |
| 20260506105547 | 26 | 118 | 8.0 | 25.7 | 0.00 | 0.00 | 0.00 | 82 | 1028.2 |
| 20260506104533 | 26 | 165 | 11.3 | 25.7 | 0.00 | 0.00 | 0.00 | 82 | 1028.3 |
| 20260506104032 | 26 | 103 | 9.7 | 25.7 | 0.00 | 0.00 | 0.00 | 83 | 1028.2 |
| 20260506101946 | 26 | 156 | 11.3 | 22.5 | 0.00 | 0.00 | 0.00 | 84 | 1028.2 |
| 20260506101445 | 26 | 150 | 11.3 | 22.5 | 0.00 | 0.00 | 0.00 | 84 | 1028.1 |
| 20260506100944 | 26 | 195 | 12.9 | 22.5 | 0.00 | 0.00 | 0.00 | 84 | 1028.1 |
| 20260506100444 | 26 | 139 | 11.3 | 22.5 | 0.00 | 0.00 | 0.00 | 84 | 1028.0 |
| 20260506095944 | 25 | 202 | 12.9 | 24.1 | 0.00 | 0.00 | 0.00 | 84 | 1028.0 |
| 20260506094929 | 25 | 189 | 12.9 | 22.5 | 0.00 | 0.00 | 0.00 | 84 | 1028.1 |
| 20260506093359 | 25 | 146 | 11.3 | 24.1 | 0.00 | 0.00 | 0.00 | 84 | 1027.9 |
| 20260506092859 | 25 | 167 | 14.5 | 24.1 | 0.00 | 0.00 | 0.00 | 84 | 1027.8 |
| 20260506092359 | 25 | 161 | 11.3 | 22.5 | 0.00 | 0.00 | 0.00 | 85 | 1027.9 |
| 20260506091859 | 25 | 139 | 11.3 | 25.7 | 0.00 | 0.00 | 0.00 | 85 | 1027.8 |
| 20260506091359 | 25 | 170 | 14.5 | 25.7 | 0.00 | 0.00 | 0.00 | 85 | 1028.1 |
| 20260506090858 | 25 | 175 | 14.5 | 24.1 | 0.00 | 0.00 | 0.00 | 85 | 1027.7 |
| 20260506090358 | 25 | 148 | 9.7 | 24.1 | 0.00 | 0.00 | 0.00 | 85 | 1028.0 |
| 20260506085858 | 25 | 134 | 12.9 | 24.1 | 0.00 | 0.00 | 0.00 | 85 | 1027.7 |
| 20260506085359 | 25 | 157 | 11.3 | 22.5 | 0.00 | 0.00 | 0.00 | 85 | 1027.5 |
| 20260506084858 | 25 | 139 | 9.7 | 22.5 | 0.00 | 0.00 | 0.00 | 85 | 1027.6 |
| 20260506084358 | 25 | 162 | 14.5 | 22.5 | 0.00 | 0.00 | 0.00 | 85 | 1027.6 |
| 20260506083857 | 25 | 159 | 14.5 | 22.5 | 0.00 | 0.00 | 0.00 | 85 | 1027.6 |
| 20260506083357 | 25 | 141 | 11.3 | 20.9 | 0.00 | 0.00 | 0.00 | 85 | 1027.7 |
| 20260506082858 | 25 | 168 | 11.3 | 24.1 | 0.00 | 0.00 | 0.00 | 85 | 1027.8 |
| 20260506082357 | 25 | 182 | 14.5 | 24.1 | 0.00 | 0.00 | 0.00 | 85 | 1027.9 |
| 20260506081856 | 25 | 162 | 14.5 | 25.7 | 0.00 | 0.00 | 0.00 | 85 | 1027.8 |
| 20260506081356 | 25 | 166 | 16.1 | 25.7 | 0.00 | 0.00 | 0.00 | 85 | 1027.6 |
| 20260506080856 | 25 | 140 | 9.7 | 20.9 | 0.00 | 0.00 | 0.00 | 85 | 1027.5 |
| 20260506080355 | 25 | 137 | 14.5 | 25.7 | 0.00 | 0.00 | 0.00 | 85 | 1027.3 |
| 20260506072841 | 25 | 134 | 11.3 | 25.7 | 0.00 | 0.00 | 0.00 | 85 | 1027.4 |
| 20260506072340 | 25 | 188 | 12.9 | 22.5 | 0.00 | 0.00 | 0.00 | 85 | 1027.6 |
| 20260506071326 | 25 | 160 | 12.9 | 20.9 | 0.00 | 0.00 | 0.00 | 85 | 1027.3 |
| 20260506070826 | 25 | 176 | 12.9 | 20.9 | 0.00 | 0.00 | 0.00 | 85 | 1027.6 |